Time;durP1;ratioP1;P1;durP2;ratioP2;P2;SDS_P1;SDS_P2;PMS_P1;PMS_P2;Temp;Humidity;BMP_temperature;BMP_pressure;BME280_temperature;BME280_humidity;BME280_pressure;Samples;Min_cycle;Max_cycle;Signal;HPM_P1;HPM_P2
2023/07/11 00:01:49;;;;;;;3.07;1.23;;;;;;;-145.18;100.00;46551.00;5058561;28;20550;-64
2023/07/11 00:04:14;;;;;;;5.93;1.40;;;;;;;-145.18;100.00;46560.78;5087697;28;20020;-64
2023/07/11 00:06:39;;;;;;;5.50;1.53;;;;;;;-145.18;100.00;46558.81;5086309;28;20500;-64
2023/07/11 00:09:05;;;;;;;5.30;1.53;;;;;;;-145.18;100.00;46556.88;5074811;28;20031;-64
2023/07/11 00:11:31;;;;;;;4.30;1.13;;;;;;;-145.18;100.00;46558.81;5074698;28;20488;-64
2023/07/11 00:13:59;;;;;;;3.03;1.50;;;;;;;-145.18;100.00;46539.28;5073568;28;20400;-64
2023/07/11 00:16:24;;;;;;;3.83;1.50;;;;;;;-145.18;100.00;46551.00;5057605;28;20052;-64
2023/07/11 00:18:50;;;;;;;6.33;1.53;;;;;;;-145.18;100.00;46554.91;5074359;28;20052;-64
2023/07/11 00:21:15;;;;;;;3.10;1.20;;;;;;;-145.18;100.00;46545.16;5087970;28;20047;-64
2023/07/11 00:23:41;;;;;;;3.53;1.40;;;;;;;-145.18;100.00;46545.16;5074582;28;20089;-62
2023/07/11 00:26:06;;;;;;;2.40;1.57;;;;;;;-145.18;100.00;46552.97;5074805;28;20031;-62
2023/07/11 00:28:32;;;;;;;5.33;1.73;;;;;;;-145.18;100.00;46547.09;5074475;28;20020;-62
2023/07/11 00:30:58;;;;;;;4.67;1.60;;;;;;;-145.18;100.00;46547.09;5074616;28;20417;-62
2023/07/11 00:33:24;;;;;;;7.23;1.57;;;;;;;-145.18;100.00;46554.91;5075108;28;20028;-62
2023/07/11 00:35:53;;;;;;;3.43;2.00;;;;;;;-145.18;100.00;46552.97;5075402;28;20438;-62
2023/07/11 00:38:20;;;;;;;6.50;2.00;;;;;;;-145.18;100.00;46547.09;5056620;28;20063;-62
2023/07/11 00:40:48;;;;;;;3.20;1.77;;;;;;;-145.18;100.00;46547.09;5074311;28;20025;-62
2023/07/11 00:43:17;;;;;;;7.17;2.17;;;;;;;-145.18;100.00;46547.09;5073880;28;20028;-62
2023/07/11 00:46:03;;;;;;;4.40;1.53;;;;;;;-145.18;100.00;46549.06;5074150;28;20032;-62
2023/07/11 00:48:33;;;;;;;8.35;1.85;;;;;;;-145.18;100.00;46552.97;5074317;28;20028;-61
2023/07/11 00:50:59;;;;;;;4.17;1.53;;;;;;;-145.18;100.00;46554.91;5074001;28;20039;-62
2023/07/11 00:53:26;;;;;;;6.50;1.83;;;;;;;-145.18;100.00;46547.09;5074158;28;20033;-61
2023/07/11 00:55:51;;;;;;;5.97;1.57;;;;;;;-145.18;100.00;46545.16;5073300;28;20032;-61
2023/07/11 00:58:20;;;;;;;5.07;1.53;;;;;;;-145.18;100.00;46560.78;5055127;28;20519;-61
2023/07/11 01:00:46;;;;;;;5.97;1.47;;;;;;;-145.18;100.00;46547.09;5074569;28;20040;-62
2023/07/11 01:03:12;;;;;;;4.27;1.70;;;;;;;-145.18;100.00;46552.97;5074248;28;20036;-62
2023/07/11 01:05:39;;;;;;;2.77;1.80;;;;;;;-145.18;100.00;46549.06;5074511;28;20017;-61
2023/07/11 01:08:05;;;;;;;6.07;1.90;;;;;;;-145.18;100.00;46551.00;5073834;28;20020;-62
2023/07/11 01:10:30;;;;;;;3.80;1.80;;;;;;;-145.18;100.00;46551.00;5074119;28;20032;-62
2023/07/11 01:13:01;;;;;;;6.57;1.80;;;;;;;-145.18;100.00;46554.91;5073954;28;20033;-61
2023/07/11 01:15:26;;;;;;;4.17;1.60;;;;;;;-145.18;100.00;46551.00;5073810;28;20020;-61
2023/07/11 01:17:51;;;;;;;3.77;1.57;;;;;;;-145.18;100.00;46549.06;5072732;28;20550;-62
2023/07/11 01:20:17;;;;;;;5.47;2.00;;;;;;;-145.18;100.00;46549.06;5073757;28;20067;-61
2023/07/11 01:22:43;;;;;;;5.03;1.83;;;;;;;-145.18;100.00;46558.81;5073465;28;20036;-61
2023/07/11 01:25:15;;;;;;;7.27;2.13;;;;;;;-145.18;100.00;46558.81;5073823;28;20031;-62
2023/07/11 01:27:43;;;;;;;4.50;1.90;;;;;;;-145.18;100.00;46558.81;5073710;28;20032;-62
2023/07/11 01:30:11;;;;;;;2.33;1.40;;;;;;;-145.18;100.00;46552.97;5061773;28;20484;-62
2023/07/11 01:32:37;;;;;;;4.10;1.50;;;;;;;-145.18;100.00;46562.72;5073138;28;20032;-62
2023/07/11 01:35:04;;;;;;;3.33;1.60;;;;;;;-145.18;100.00;46562.72;5073785;28;20063;-62
2023/07/11 01:37:30;;;;;;;2.63;1.50;;;;;;;-145.18;100.00;46551.00;5055766;28;20115;-62
2023/07/11 01:39:56;;;;;;;3.17;1.50;;;;;;;-145.18;100.00;46549.06;5073932;28;20028;-62
2023/07/11 01:42:22;;;;;;;6.93;1.80;;;;;;;-145.18;100.00;46547.09;5073092;28;20093;-62
2023/07/11 01:44:48;;;;;;;5.67;2.20;;;;;;;-145.18;100.00;46552.97;5080873;28;20090;-62
2023/07/11 01:47:14;;;;;;;2.93;1.90;;;;;;;-145.18;100.00;46549.06;5072630;28;20056;-61
2023/07/11 01:49:39;;;;;;;4.23;2.07;;;;;;;-145.18;100.00;46551.00;5072617;28;20103;-61
2023/07/11 01:52:11;;;;;;;4.73;2.23;;;;;;;-145.18;100.00;46551.00;5073279;28;20032;-62
2023/07/11 01:54:36;;;;;;;6.20;2.57;;;;;;;-145.18;100.00;46552.97;5072147;28;20066;-61
2023/07/11 01:57:02;;;;;;;5.77;2.20;;;;;;;-145.18;100.00;46562.72;5070599;28;20104;-62
2023/07/11 01:59:28;;;;;;;4.87;2.10;;;;;;;-145.18;100.00;46564.69;5072410;28;20052;-62
2023/07/11 02:01:54;;;;;;;5.03;2.07;;;;;;;-145.18;100.00;46621.31;5072520;28;20103;-62
2023/07/11 02:04:21;;;;;;;4.50;2.03;;;;;;;-145.18;100.00;46621.31;5072201;28;20127;-62
2023/07/11 02:06:50;;;;;;;3.27;1.90;;;;;;;-145.18;100.00;46638.91;5091046;28;20070;-61
2023/07/11 02:09:17;;;;;;;3.67;2.13;;;;;;;-145.18;100.00;46660.41;5083336;28;20024;-61
2023/07/11 02:11:43;;;;;;;8.83;2.10;;;;;;;-145.18;100.00;46652.59;5091322;28;20426;-62
2023/07/11 02:14:08;;;;;;;4.77;2.57;;;;;;;-145.18;100.00;46670.16;5071885;28;20047;-62
2023/07/11 02:16:34;;;;;;;4.50;2.43;;;;;;;-145.18;100.00;46687.75;5054017;28;20028;-62
2023/07/11 02:18:59;;;;;;;5.10;2.30;;;;;;;-145.18;100.00;46687.75;5072182;28;20029;-62
2023/07/11 02:21:24;;;;;;;4.83;2.10;;;;;;;-145.18;100.00;46683.84;5087827;28;20036;-62
2023/07/11 02:23:50;;;;;;;9.80;2.03;;;;;;;-145.18;100.00;46687.75;5072227;28;20037;-62
2023/07/11 02:26:16;;;;;;;4.90;2.10;;;;;;;-145.18;100.00;46685.78;5072369;28;20100;-62
2023/07/11 02:28:41;;;;;;;6.23;2.43;;;;;;;-145.18;100.00;46689.69;5072185;28;20115;-61
2023/07/11 02:31:07;;;;;;;9.10;2.90;;;;;;;-145.18;100.00;46683.84;5072467;28;20108;-62
2023/07/11 02:33:32;;;;;;;3.73;2.17;;;;;;;-145.18;100.00;46689.69;5071726;28;20115;-62
2023/07/11 02:35:57;;;;;;;3.60;2.27;;;;;;;-145.18;100.00;46685.78;5059298;28;20027;-61
2023/07/11 02:38:23;;;;;;;5.47;2.40;;;;;;;-145.18;100.00;46683.84;5078775;28;20033;-61
2023/07/11 02:40:48;;;;;;;4.73;2.33;;;;;;;-145.18;100.00;46683.84;5065125;28;20031;-62
2023/07/11 02:43:15;;;;;;;6.13;2.40;;;;;;;-145.18;100.00;46685.78;5091412;28;20060;-61
2023/07/11 02:45:40;;;;;;;4.57;2.70;;;;;;;-145.18;100.00;46683.84;5091361;28;20020;-61
2023/07/11 02:48:06;;;;;;;3.00;2.10;;;;;;;-145.18;100.00;46683.84;5091500;28;20047;-61
2023/07/11 02:50:31;;;;;;;4.27;1.80;;;;;;;-145.18;100.00;46679.94;5081624;28;20107;-61
2023/07/11 02:52:57;;;;;;;4.17;2.10;;;;;;;-145.18;100.00;46681.88;5091273;28;20039;-62
2023/07/11 02:55:22;;;;;;;7.63;2.37;;;;;;;-145.18;100.00;46664.31;5090158;28;20052;-62
2023/07/11 02:57:47;;;;;;;9.10;2.73;;;;;;;-145.18;100.00;46664.31;5090888;28;20060;-62
2023/07/11 03:00:13;;;;;;;5.20;2.40;;;;;;;-145.18;100.00;46654.53;5090596;28;20039;-62
2023/07/11 03:02:38;;;;;;;5.27;2.60;;;;;;;-145.18;100.00;46660.41;5090909;28;20108;-61
2023/07/11 03:05:05;;;;;;;4.60;2.67;;;;;;;-145.18;100.00;46660.41;5076278;28;20024;-61
2023/07/11 03:07:30;;;;;;;5.90;2.40;;;;;;;-145.18;100.00;46650.63;5071533;28;20016;-61
2023/07/11 03:09:55;;;;;;;4.80;2.60;;;;;;;-145.18;100.00;46656.50;5071787;28;20112;-62
2023/07/11 03:12:21;;;;;;;3.27;2.30;;;;;;;-145.18;100.00;46654.53;5071872;28;20032;-62
2023/07/11 03:14:51;;;;;;;5.83;2.50;;;;;;;-145.18;100.00;46660.41;5082864;28;20055;-62
2023/07/11 03:17:17;;;;;;;8.10;2.20;;;;;;;-145.18;100.00;46660.41;5071699;28;20060;-61
2023/07/11 03:19:42;;;;;;;4.97;2.43;;;;;;;-145.18;100.00;46658.44;5071803;28;20056;-62
2023/07/11 03:22:07;;;;;;;6.07;2.30;;;;;;;-145.18;100.00;46662.34;5071643;28;20037;-62
2023/07/11 03:24:33;;;;;;;3.97;2.30;;;;;;;-145.18;100.00;46658.44;5077094;28;20016;-62
2023/07/11 03:26:58;;;;;;;4.10;1.93;;;;;;;-145.18;100.00;46656.50;5078759;28;20063;-62
2023/07/11 03:29:24;;;;;;;7.73;2.23;;;;;;;-145.18;100.00;46648.69;5053400;28;20115;-62
2023/07/11 03:31:49;;;;;;;6.00;2.30;;;;;;;-145.18;100.00;46660.41;5053434;28;20029;-62
2023/07/11 03:34:14;;;;;;;7.30;2.40;;;;;;;-145.18;100.00;46652.59;5071937;28;20045;-62
2023/07/11 03:36:41;;;;;;;4.23;2.37;;;;;;;-145.18;100.00;46662.34;5071348;28;20028;-61
2023/07/11 03:39:07;;;;;;;6.03;2.23;;;;;;;-145.18;100.00;46654.53;5071280;28;20155;-62
2023/07/11 03:41:33;;;;;;;6.83;2.87;;;;;;;-145.18;100.00;46660.41;5071520;28;20043;-61
2023/07/11 03:43:58;;;;;;;5.20;2.70;;;;;;;-145.18;100.00;46654.53;5071204;28;20025;-62
2023/07/11 03:46:23;;;;;;;3.93;2.90;;;;;;;-145.18;100.00;46654.53;5071953;28;20100;-62
2023/07/11 03:48:49;;;;;;;7.57;2.73;;;;;;;-145.18;100.00;46650.63;5073939;28;20084;-62
2023/07/11 03:51:14;;;;;;;6.70;3.17;;;;;;;-145.18;100.00;46660.41;5075755;28;20109;-62
2023/07/11 03:53:40;;;;;;;5.57;3.10;;;;;;;-145.18;100.00;46656.50;5075486;28;20020;-62
2023/07/11 03:56:07;;;;;;;10.67;3.73;;;;;;;-145.18;100.00;46644.78;5075035;28;20063;-62
2023/07/11 03:58:33;;;;;;;9.50;3.27;;;;;;;-145.18;100.00;46656.50;5075503;28;20028;-62
2023/07/11 04:00:58;;;;;;;13.87;3.50;;;;;;;-145.18;100.00;46648.69;5075481;28;20138;-62
2023/07/11 04:03:24;;;;;;;6.80;3.17;;;;;;;-145.18;100.00;46646.72;5074722;28;20032;-62
2023/07/11 04:05:50;;;;;;;8.37;4.30;;;;;;;-145.18;100.00;46652.59;5099170;28;20037;-62
2023/07/11 04:08:15;;;;;;;6.60;3.43;;;;;;;-145.18;100.00;46652.59;5074746;28;20063;-62
2023/07/11 04:10:41;;;;;;;6.13;3.40;;;;;;;-145.18;100.00;46646.72;5074470;28;20090;-62
2023/07/11 04:13:06;;;;;;;9.77;4.17;;;;;;;-145.18;100.00;46644.78;5074433;28;20025;-62
2023/07/11 04:15:31;;;;;;;11.90;4.17;;;;;;;-145.18;100.00;46652.59;5090022;28;20516;-62
2023/07/11 04:17:57;;;;;;;6.83;3.60;;;;;;;-145.18;100.00;46648.69;5074670;28;20031;-61
2023/07/11 04:20:22;;;;;;;6.90;3.90;;;;;;;-145.18;100.00;46654.53;5090038;28;20408;-62
2023/07/11 04:22:48;;;;;;;10.40;4.13;;;;;;;-145.18;100.00;46654.53;5066266;28;20036;-62
2023/07/11 04:25:13;;;;;;;9.40;4.13;;;;;;;-145.18;100.00;46656.50;5078033;28;20032;-61
2023/07/11 04:27:39;;;;;;;9.53;4.20;;;;;;;-145.18;100.00;46648.69;5074720;28;20115;-62
2023/07/11 04:30:06;;;;;;;6.67;4.10;;;;;;;-145.18;100.00;46648.69;5078709;28;20028;-62
2023/07/11 04:32:32;;;;;;;6.63;4.00;;;;;;;-145.18;100.00;46648.69;5057290;28;20032;-62
2023/07/11 04:34:57;;;;;;;8.00;4.17;;;;;;;-145.18;100.00;46650.63;5089648;28;20024;-62
2023/07/11 04:37:23;;;;;;;7.73;4.07;;;;;;;-145.18;100.00;46650.63;5060329;28;20037;-62
2023/07/11 04:39:48;;;;;;;7.27;4.07;;;;;;;-145.18;100.00;46646.72;5076712;28;20037;-61
2023/07/11 04:42:13;;;;;;;7.87;4.23;;;;;;;-145.18;100.00;46646.72;5073428;28;20381;-61
2023/07/11 04:44:39;;;;;;;7.57;4.67;;;;;;;-145.18;100.00;46650.63;5063891;28;20032;-62
2023/07/11 04:47:06;;;;;;;11.13;5.13;;;;;;;-145.18;100.00;46646.72;5081563;28;20395;-62
2023/07/11 04:49:31;;;;;;;10.07;4.70;;;;;;;-145.18;100.00;46646.72;5089050;28;20090;-62
2023/07/11 04:51:57;;;;;;;8.07;4.60;;;;;;;-145.18;100.00;46648.69;5076581;28;20028;-62
2023/07/11 04:54:22;;;;;;;11.20;4.50;;;;;;;-145.18;100.00;46646.72;5085726;28;20028;-62
2023/07/11 04:56:58;;;;;;;7.63;4.40;;;;;;;-145.18;100.00;46646.72;5073361;28;20095;-62
2023/07/11 04:59:24;;;;;;;9.50;4.80;;;;;;;-145.18;100.00;46646.72;5083383;28;20032;-62
2023/07/11 05:01:50;;;;;;;9.97;4.43;;;;;;;-145.18;100.00;46648.69;5058092;28;20039;-62
2023/07/11 05:04:15;;;;;;;10.37;5.33;;;;;;;-145.18;100.00;46650.63;5065363;28;20044;-64
2023/07/11 05:06:40;;;;;;;7.73;5.53;;;;;;;-145.18;100.00;46648.69;5091572;28;20058;-64
2023/07/11 05:09:06;;;;;;;8.13;5.20;;;;;;;-145.18;100.00;46648.69;5057818;28;20094;-64
2023/07/11 05:11:32;;;;;;;9.40;5.40;;;;;;;-145.18;100.00;46650.63;5086467;28;20035;-64
2023/07/11 05:13:57;;;;;;;12.43;5.07;;;;;;;-145.18;100.00;46644.78;5063434;28;20028;-64
2023/07/11 05:16:24;;;;;;;11.87;5.73;;;;;;;-145.18;100.00;46648.69;5075275;28;20044;-64
2023/07/11 05:18:50;;;;;;;9.10;5.03;;;;;;;-145.18;100.00;46646.72;5082017;28;20117;-64
2023/07/11 05:21:18;;;;;;;10.47;5.83;;;;;;;-145.18;100.00;46654.53;5076124;28;20120;-63
2023/07/11 05:23:44;;;;;;;7.87;5.10;;;;;;;-145.18;100.00;46644.78;5073622;28;20498;-64
2023/07/11 05:26:09;;;;;;;9.07;4.93;;;;;;;-145.18;100.00;46648.69;5074728;28;20050;-64
2023/07/11 05:28:35;;;;;;;9.97;4.93;;;;;;;-145.18;100.00;46648.69;5075003;28;20032;-64
2023/07/11 05:31:02;;;;;;;12.97;5.10;;;;;;;-145.18;100.00;46648.69;5074746;28;20036;-64
2023/07/11 05:33:28;;;;;;;11.80;5.23;;;;;;;-145.18;100.00;46656.50;5072671;28;20081;-64
2023/07/11 05:36:20;;;;;;;10.93;5.10;;;;;;;-145.18;100.00;46648.69;5081356;28;20088;-64
2023/07/11 05:38:46;;;;;;;11.53;5.43;;;;;;;-145.18;100.00;46654.53;5076465;28;20036;-64
2023/07/11 05:41:12;;;;;;;10.00;5.60;;;;;;;-145.18;100.00;46658.44;5073347;28;20045;-64
2023/07/11 05:43:37;;;;;;;10.67;4.83;;;;;;;-145.18;100.00;46662.34;5076533;28;20032;-64
2023/07/11 05:46:03;;;;;;;10.30;5.47;;;;;;;-145.18;100.00;46662.34;5073629;28;20089;-64
2023/07/11 05:48:28;;;;;;;9.00;4.47;;;;;;;-145.18;100.00;46664.31;5077151;28;20148;-64
2023/07/11 05:51:02;;;;;;;11.07;5.03;;;;;;;-145.18;100.00;46672.13;5049334;28;20040;-64
2023/07/11 05:53:28;;;;;;;9.00;4.70;;;;;;;-145.18;100.00;46676.03;5079538;28;20059;-64
2023/07/11 05:55:55;;;;;;;7.10;4.60;;;;;;;-145.18;100.00;46679.94;5082926;28;20036;-64
2023/07/11 05:58:21;;;;;;;7.93;4.73;;;;;;;-145.18;100.00;46674.06;5071328;28;20048;-64
2023/07/11 06:00:46;;;;;;;9.03;4.30;;;;;;;-145.18;100.00;46677.97;5089969;28;20032;-64
2023/07/11 06:03:12;;;;;;;6.80;4.30;;;;;;;-145.18;100.00;46681.88;5100929;28;20181;-64
2023/07/11 06:05:37;;;;;;;8.80;4.90;;;;;;;-145.18;100.00;46679.94;5081541;28;20439;-64
2023/07/11 06:08:03;;;;;;;6.13;4.43;;;;;;;-145.18;100.00;46683.84;5092086;28;20039;-64
2023/07/11 06:10:29;;;;;;;6.43;3.97;;;;;;;-145.18;100.00;46681.88;5080843;28;20040;-64
2023/07/11 06:12:54;;;;;;;9.60;4.50;;;;;;;-145.18;100.00;46679.94;5072180;28;20388;-64
2023/07/11 06:15:19;;;;;;;7.60;4.30;;;;;;;-145.18;100.00;46683.84;5072263;28;20085;-64
2023/07/11 06:17:45;;;;;;;7.57;4.40;;;;;;;-145.18;100.00;46679.94;5071960;28;20028;-64
2023/07/11 06:20:11;;;;;;;5.17;4.27;;;;;;;-145.18;100.00;46679.94;5081823;28;20043;-64
2023/07/11 06:22:36;;;;;;;7.33;3.73;;;;;;;-145.18;100.00;46677.97;5088344;28;20039;-64
2023/07/11 06:25:02;;;;;;;10.87;3.70;;;;;;;-145.18;100.00;46658.44;5075069;28;20039;-64
2023/07/11 06:27:28;;;;;;;7.33;4.00;;;;;;;-145.18;100.00;46654.53;5072370;28;20027;-64
2023/07/11 06:29:54;;;;;;;7.13;3.63;;;;;;;-145.18;100.00;46652.59;5053655;28;20039;-64
2023/07/11 06:32:19;;;;;;;6.83;3.33;;;;;;;-145.18;100.00;46660.41;5085225;28;20337;-64
2023/07/11 06:34:45;;;;;;;6.43;3.40;;;;;;;-145.18;100.00;46574.44;5072072;28;20033;-64
2023/07/11 06:37:11;;;;;;;6.57;2.87;;;;;;;-145.18;100.00;46554.91;5071724;28;20029;-64
2023/07/11 06:39:37;;;;;;;6.53;3.53;;;;;;;-145.18;100.00;46541.25;5071713;28;20717;-64
2023/07/11 06:42:02;;;;;;;7.73;3.33;;;;;;;-145.18;100.00;46541.25;5053704;28;20032;-64
2023/07/11 06:44:30;;;;;;;5.77;2.80;;;;;;;-145.18;100.00;46552.97;5087962;28;20404;-64
2023/07/11 06:46:55;;;;;;;11.37;3.03;;;;;;;-145.18;100.00;46539.28;5072936;28;20024;-64
2023/07/11 06:49:21;;;;;;;7.10;3.10;;;;;;;-145.18;100.00;46545.16;5087889;28;20043;-64
2023/07/11 06:51:48;;;;;;;9.80;3.40;;;;;;;-145.18;100.00;46541.25;5072221;28;20119;-64
2023/07/11 06:54:13;;;;;;;5.93;3.10;;;;;;;-145.18;100.00;46551.00;5071819;28;20059;-64
2023/07/11 06:56:39;;;;;;;7.57;2.93;;;;;;;-145.18;100.00;46539.28;5072670;28;20512;-64
2023/07/11 06:59:04;;;;;;;6.03;2.90;;;;;;;-145.18;100.00;46535.38;5072115;28;20131;-64
2023/07/11 07:01:29;;;;;;;4.20;2.57;;;;;;;-145.18;100.00;46535.38;5071984;28;20459;-64
2023/07/11 07:03:55;;;;;;;8.63;2.80;;;;;;;-145.18;100.00;46531.47;5055864;28;20044;-64
2023/07/11 07:06:21;;;;;;;4.00;2.70;;;;;;;-145.18;100.00;46535.38;5071033;28;20036;-64
2023/07/11 07:08:47;;;;;;;6.37;3.63;;;;;;;-145.18;100.00;46539.28;5071599;28;20449;-64
2023/07/11 07:11:12;;;;;;;6.13;2.87;;;;;;;-145.18;100.00;46533.44;5071999;28;20045;-64
2023/07/11 07:13:37;;;;;;;11.50;2.23;;;;;;;-145.18;100.00;46539.28;5071884;28;20515;-64
2023/07/11 07:16:03;;;;;;;6.60;2.90;;;;;;;-145.18;100.00;46543.19;5071774;28;20029;-64
2023/07/11 07:18:34;;;;;;;4.87;2.70;;;;;;;-145.18;100.00;46558.81;5092235;28;20051;-64
2023/07/11 07:21:01;;;;;;;5.20;2.67;;;;;;;-145.18;100.00;46554.91;5071748;28;20040;-64
2023/07/11 07:23:27;;;;;;;7.37;3.27;;;;;;;-145.18;100.00;46558.81;5074099;28;20365;-62
2023/07/11 07:25:55;;;;;;;4.90;2.80;;;;;;;-145.18;100.00;46539.28;5075078;28;20039;-62
2023/07/11 07:28:21;;;;;;;5.33;2.53;;;;;;;-145.18;100.00;46545.16;5076186;28;20468;-62
2023/07/11 07:30:47;;;;;;;3.97;2.23;;;;;;;-145.18;100.00;46560.78;5074375;28;20032;-62
2023/07/11 07:33:13;;;;;;;4.70;2.20;;;;;;;-145.18;100.00;46597.88;5074830;28;20036;-62
2023/07/11 07:35:40;;;;;;;8.00;2.23;;;;;;;-145.18;100.00;46908.47;5074865;28;20128;-62
2023/07/11 07:38:05;;;;;;;5.80;2.20;;;;;;;-145.18;100.00;46900.66;5074612;28;20392;-62
2023/07/11 07:40:31;;;;;;;5.47;2.17;;;;;;;-145.18;100.00;46781.50;5080385;28;20048;-62
2023/07/11 07:42:56;;;;;;;7.50;2.10;;;;;;;-145.18;100.00;47135.09;5082084;28;20443;-62
2023/07/11 07:45:22;;;;;;;7.03;2.43;;;;;;;-145.18;100.00;47051.09;5084095;28;20090;-62
2023/07/11 07:47:47;;;;;;;8.43;2.50;;;;;;;-145.18;100.00;47015.91;5081889;28;20028;-62
2023/07/11 07:50:12;;;;;;;5.27;2.30;;;;;;;-145.18;100.00;47127.28;5082310;28;20031;-62
2023/07/11 07:52:38;;;;;;;4.30;1.93;;;;;;;-145.18;100.00;47152.66;5072884;28;20036;-62
2023/07/11 07:55:04;;;;;;;3.37;2.30;;;;;;;-145.18;100.00;47076.47;5061426;28;20094;-62
2023/07/11 07:57:29;;;;;;;5.43;2.00;;;;;;;-145.18;100.00;47109.69;5063446;28;20473;-63
2023/07/11 07:59:55;;;;;;;4.23;1.87;;;;;;;-145.18;100.00;47113.59;5077621;28;20488;-62
2023/07/11 08:02:20;;;;;;;3.45;2.00;;;;;;;-145.18;100.00;47037.41;5074661;28;20035;-62
2023/07/11 08:04:47;;;;;;;5.63;2.00;;;;;;;-145.18;100.00;47037.41;5076373;28;20028;-62
2023/07/11 08:07:14;;;;;;;4.93;2.05;;;;;;;-145.18;100.00;47019.81;5076692;28;20055;-62
2023/07/11 08:09:39;;;;;;;4.87;2.07;;;;;;;-145.18;100.00;47029.59;5068635;28;20440;-62
2023/07/11 08:12:09;;;;;;;6.10;1.95;;;;;;;-145.18;100.00;47008.09;5094001;28;20036;-62
2023/07/11 08:14:37;;;;;;;7.40;1.88;;;;;;;-145.18;100.00;47015.91;5087651;28;20043;-62
2023/07/11 08:17:03;;;;;;;3.58;1.80;;;;;;;-145.18;100.00;47019.81;5093680;28;20027;-62
2023/07/11 08:19:28;;;;;;;3.78;1.88;;;;;;;-145.18;100.00;47013.97;5092738;28;20043;-62
2023/07/11 08:21:54;;;;;;;4.95;1.58;;;;;;;-145.18;100.00;47039.34;5093787;28;20028;-62
2023/07/11 08:24:19;;;;;;;2.80;1.80;;;;;;;-145.18;100.00;47027.63;5080992;28;20061;-62
2023/07/11 08:26:45;;;;;;;4.55;1.90;;;;;;;-145.18;100.00;47023.72;5084405;28;20472;-62
2023/07/11 08:29:12;;;;;;;3.43;1.90;;;;;;;-145.18;100.00;47006.16;5071865;28;20101;-62
2023/07/11 08:31:38;;;;;;;4.07;1.85;;;;;;;-145.18;100.00;46998.34;5094681;28;20024;-62
2023/07/11 08:34:03;;;;;;;6.25;2.08;;;;;;;-145.18;100.00;47012.00;5094013;28;20439;-64
2023/07/11 08:36:29;;;;;;;5.07;2.13;;;;;;;-145.18;100.00;47012.00;5083700;28;20056;-64
2023/07/11 08:38:54;;;;;;;10.60;2.25;;;;;;;-145.18;100.00;47008.09;5073981;28;20024;-65
2023/07/11 08:41:39;;;;;;;4.25;2.13;;;;;;;-145.18;100.00;47015.91;5074731;28;20123;-64
2023/07/11 08:44:12;;;;;;;7.43;2.10;;;;;;;-145.18;100.00;47013.97;5074138;28;20039;-64
2023/07/11 08:46:45;;;;;;;6.07;2.63;;;;;;;-145.18;100.00;47004.19;5077852;28;20480;-64
2023/07/11 08:49:22;;;;;;;4.43;2.03;;;;;;;-145.18;100.00;47006.16;5077730;28;20028;-65
2023/07/11 08:51:51;;;;;;;4.22;1.98;;;;;;;-145.18;100.00;46988.56;5068932;28;20492;-64
2023/07/11 08:54:49;;;;;;;3.33;1.80;;;;;;;-145.18;100.00;47012.00;5080137;28;20106;-64
2023/07/11 08:57:18;;;;;;;8.00;1.92;;;;;;;-145.18;100.00;46984.66;5080943;28;20044;-65
2023/07/11 08:59:50;;;;;;;6.72;2.10;;;;;;;-145.18;100.00;46982.72;5082727;28;20471;-64
2023/07/11 09:02:50;;;;;;;9.63;2.25;;;;;;;-145.18;100.00;46974.91;5089038;28;20058;-65
2023/07/11 09:05:23;;;;;;;5.72;2.45;;;;;;;-145.18;100.00;46982.72;5073771;28;20028;-64
2023/07/11 09:07:52;;;;;;;5.85;2.17;;;;;;;-145.18;100.00;46988.56;5073968;28;20034;-64
2023/07/11 09:10:33;;;;;;;6.65;2.42;;;;;;;-145.18;100.00;47000.28;5087911;28;20028;-65
2023/07/11 09:13:44;;;;;;;3.33;1.90;;;;;;;-145.18;100.00;47008.09;5077449;28;20028;-64
2023/07/11 09:16:09;;;;;;;8.90;2.90;;;;;;;-145.18;100.00;47000.28;5087817;28;20044;-64
2023/07/11 09:18:55;;;;;;;5.28;2.33;;;;;;;-145.18;100.00;46992.47;5089013;28;20047;-64
2023/07/11 09:21:34;;;;;;;5.93;2.33;;;;;;;-145.18;100.00;46967.09;5091489;28;20450;-64
2023/07/11 09:24:38;;;;;;;6.00;2.15;;;;;;;-145.18;100.00;46967.09;5092212;28;20449;-62
2023/07/11 09:27:16;;;;;;;4.72;1.98;;;;;;;-145.18;100.00;46982.72;5069393;28;20440;-65
2023/07/11 09:29:45;;;;;;;4.82;2.17;;;;;;;-145.18;100.00;46978.81;5073385;28;20024;-65
2023/07/11 09:32:11;;;;;;;4.30;1.90;;;;;;;-145.18;100.00;46984.66;5068492;28;20445;-65
2023/07/11 09:34:41;;;;;;;8.73;1.90;;;;;;;-145.18;100.00;47000.28;5061387;28;20483;-65
2023/07/11 09:37:28;;;;;;;4.57;2.25;;;;;;;-145.18;100.00;46976.84;5075123;28;21073;-65
2023/07/11 09:40:03;;;;;;;9.10;2.17;;;;;;;-145.18;100.00;46980.75;5063435;28;20113;-65
2023/07/11 09:42:39;;;;;;;4.07;2.13;;;;;;;-145.18;100.00;46986.63;5081600;28;20090;-65
2023/07/11 09:45:11;;;;;;;;;;;;;;;-145.18;100.00;46988.56;5079065;28;20038;-63
2023/07/11 09:47:38;;;;;;;6.00;2.30;;;;;;;-145.18;100.00;46971.00;5074883;28;19919;-62
2023/07/11 09:50:19;;;;;;;3.67;1.70;;;;;;;-145.18;100.00;46969.03;5077461;28;20073;-62
2023/07/11 09:52:46;;;;;;;8.35;2.58;;;;;;;-145.18;100.00;46957.31;5075692;28;20398;-63
2023/07/11 09:55:28;;;;;;;6.72;1.90;;;;;;;-145.18;100.00;46957.31;5078453;28;20036;-62
2023/07/11 09:57:54;;;;;;;3.35;1.92;;;;;;;-145.18;100.00;46933.88;5077946;28;20040;-63
2023/07/11 10:00:19;;;;;;;5.75;2.42;;;;;;;-145.18;100.00;46949.50;5074584;28;20511;-63
2023/07/11 10:02:46;;;;;;;5.95;2.05;;;;;;;-145.18;100.00;46969.03;5078308;28;20120;-62
2023/07/11 10:05:17;;;;;;;7.50;2.30;;;;;;;-145.18;100.00;46961.22;5074222;28;20016;-63
2023/07/11 10:07:42;;;;;;;5.28;2.22;;;;;;;-145.18;100.00;46967.09;5072631;28;20062;-62
2023/07/11 10:10:13;;;;;;;9.88;2.40;;;;;;;-145.18;100.00;46959.25;5091761;28;20024;-63
2023/07/11 10:12:42;;;;;;;5.82;2.10;;;;;;;-145.18;100.00;46971.00;5091973;28;20487;-63
2023/07/11 10:15:14;;;;;;;4.75;2.00;;;;;;;-145.18;100.00;46976.84;5072454;28;20107;-63
2023/07/11 10:17:42;;;;;;;6.90;2.00;;;;;;;-145.18;100.00;46963.19;5071789;28;20086;-63
2023/07/11 10:20:16;;;;;;;6.60;2.03;;;;;;;-145.18;100.00;46957.31;5072275;28;20055;-62
2023/07/11 10:22:43;;;;;;;5.25;2.17;;;;;;;-145.18;100.00;46945.59;5071827;28;20054;-63
2023/07/11 10:25:22;;;;;;;5.88;2.10;;;;;;;-145.18;100.00;46935.81;5071985;28;20465;-62
2023/07/11 10:28:13;;;;;;;7.10;2.60;;;;;;;-145.18;100.00;46926.06;5077766;28;20021;-63
2023/07/11 10:30:40;;;;;;;7.35;2.25;;;;;;;-145.18;100.00;46910.44;5077343;28;20028;-63
2023/07/11 10:33:18;;;;;;;5.95;2.85;;;;;;;-145.18;100.00;46910.44;5073735;28;20107;-62
2023/07/11 10:35:52;;;;;;;5.95;2.45;;;;;;;-145.18;100.00;46918.25;5076669;28;20032;-63
2023/07/11 10:38:30;;;;;;;6.97;2.17;;;;;;;-145.18;100.00;46959.25;5075422;28;20025;-62
2023/07/11 10:41:00;;;;;;;3.42;2.30;;;;;;;-145.18;100.00;46969.03;5073784;28;20062;-62
2023/07/11 10:43:29;;;;;;;5.30;2.63;;;;;;;-145.18;100.00;46971.00;5070690;28;20032;-62
2023/07/11 10:46:25;;;;;;;8.02;2.35;;;;;;;-145.18;100.00;46965.13;5083261;28;20450;-62
2023/07/11 10:48:56;;;;;;;10.95;3.28;;;;;;;-145.18;100.00;46949.50;5079051;28;20033;-63
2023/07/11 10:51:56;;;;;;;4.53;1.90;;;;;;;-145.18;100.00;46943.63;5088888;28;20028;-63
2023/07/11 10:54:27;;;;;;;7.72;2.65;;;;;;;-145.18;100.00;46949.50;5065535;28;20031;-65
2023/07/11 10:57:01;;;;;;;5.03;2.50;;;;;;;-145.18;100.00;46957.31;5078789;28;20048;-65
2023/07/11 10:59:31;;;;;;;6.85;2.25;;;;;;;-145.18;100.00;46976.84;5088679;28;20024;-65
2023/07/11 11:01:56;;;;;;;5.47;2.30;;;;;;;-145.18;100.00;46976.84;5078687;28;20047;-65
2023/07/11 11:04:43;;;;;;;7.15;2.88;;;;;;;-145.18;100.00;46986.63;5078662;28;20032;-65
2023/07/11 11:07:30;;;;;;;6.05;2.70;;;;;;;-145.18;100.00;46978.81;5060184;28;20038;-65
2023/07/11 11:10:14;;;;;;;3.65;2.53;;;;;;;-145.18;100.00;46988.56;5072276;28;20020;-65
2023/07/11 11:12:46;;;;;;;4.15;2.83;;;;;;;-145.18;100.00;47010.06;5072112;28;20549;-64
2023/07/11 11:15:29;;;;;;;7.18;2.75;;;;;;;-145.18;100.00;47039.34;5071049;28;20059;-65